الصفحة الرئيسية
METAR-TAF:

METAR-TAF

مطار :

مطار أبيدجان الدولي

أبيدجان, كوت ديفوار

دائرة عرض: 05-15N, خط طول: 003-56W, ارتفاع: 7 متر

مراقبة الطقس الحالي

تاريخ ووقت الإصدار 56 دقيقة قبل الساعة 21:30UTC
ريح 8 عقدة من الجنوب الغربي
درجة الحرارة 29°درجة مئوية
الرطوبة 84%
ضغط 1011 hPa
الرؤية: 8000 متر
غيوم قليلة على ارتفاع 1200 قدم

METAR: DIAP 232130Z 22008KT 8000 FEW012 29/26 Q1011 NOSIG

زمن: 22:26 (22:26 UTC)

توقعات

تاريخ ووقت الإصدار 5ساعات و 26 دقيقة قبل الساعة 17:00UTC
التوقعات صالحة من23 الساعة 18 UTC إلى 24 الساعة 24 UTC
ريح 6 عقدة من الغرب/الجنوب الغربي
الرؤية 10 كم أو أكثر
غيوم متفرقة على ارتفاع 1200 قدم
مؤقت
من 23 الساعة 18 UTC إلى 23 الساعة 23 UTC
غيوم مفككة على ارتفاع 1200 قدم
غيوم قليلة على ارتفاع 2000 قدم, مزنة ركامية.
عاصفة رعدية
نظرية الاحتمالات 30% :
مؤقت
من 24 الساعة 05 UTC إلى 24 الساعة 09 UTC
الرؤية: 3000 متر
غشاء
مؤقت
من 24 الساعة 15 UTC إلى 24 الساعة 21 UTC
غيوم قليلة على ارتفاع 2000 قدم, مزنة ركامية.
عاصفة رعدية

TAF: DIAP 231700Z 2318/2424 24006KT 9999 SCT012 TEMPO 2318/2323 TS BKN012 FEW020CB PROB30 TEMPO 2405/2409 3000 BR TEMPO 2415/2421 TS BKN0012 FEW020CB

أرصاد الطقس والتوقعات من أكثر من 4000 مطار (تقارير الطقس للمطار METAR والتنبؤ بالطقس بالمطارTAF).

المحطات المتاحة هي النقط الصفراء والحمراء على الخريطة.

حرك المؤشر فوق النقطة لمعرفة اسم المحطة.

ثم انقر لمعرفة أرصاد وتوقعات الطقس.

لتغيير الخارطة: اضغط على الأزرار الخضراء مع رمز الصليب الأسود للتكبير. على الزر الأخضر مع شرطة للتصغير، أو على الأسهم الخضراء للخرائط المجاورة.


METAR-TAF: